createdAt,value
2019-04-26T00:00:52.705Z,19.00
2019-04-26T00:03:25.469Z,18.90
2019-04-26T00:05:54.188Z,19.00
2019-04-26T00:08:22.614Z,19.00
2019-04-26T00:10:52.747Z,19.00
2019-04-26T00:13:28.857Z,19.00
2019-04-26T00:16:15.482Z,19.00
2019-04-26T00:18:44.153Z,19.00
2019-04-26T00:21:12.613Z,19.00
2019-04-26T00:23:41.310Z,19.00
2019-04-26T00:26:11.061Z,19.00
2019-04-26T00:28:40.177Z,19.00
2019-04-26T00:31:08.602Z,19.00
2019-04-26T00:33:37.377Z,19.00
2019-04-26T00:36:05.969Z,19.00
2019-04-26T00:38:34.419Z,19.00
2019-04-26T00:41:03.104Z,19.00
2019-04-26T00:43:31.793Z,18.90
2019-04-26T00:46:02.073Z,18.80
2019-04-26T00:48:32.441Z,18.80
2019-04-26T00:51:03.333Z,18.60
2019-04-26T00:53:34.346Z,18.60
2019-04-26T00:56:05.269Z,18.60
2019-04-26T00:58:34.760Z,18.60
2019-04-26T01:01:03.275Z,18.80
2019-04-26T01:03:31.778Z,18.80
2019-04-26T01:06:01.842Z,18.60
2019-04-26T01:08:30.545Z,18.50
2019-04-26T01:10:58.974Z,18.50
2019-04-26T01:13:27.427Z,18.50
2019-04-26T01:15:55.850Z,18.60
2019-04-26T01:18:24.485Z,18.60
2019-04-26T01:20:56.137Z,18.60
2019-04-26T01:23:27.369Z,18.60
2019-04-26T01:26:15.385Z,18.70
2019-04-26T01:28:58.114Z,18.80
2019-04-26T01:31:28.569Z,18.70
2019-04-26T01:33:57.070Z,18.50
2019-04-26T01:36:27.056Z,18.60
2019-04-26T01:38:58.554Z,18.70
2019-04-26T01:41:34.358Z,18.90
2019-04-26T01:44:10.533Z,19.00
2019-04-26T01:46:41.637Z,18.80
2019-04-26T01:49:11.832Z,18.50
2019-04-26T01:51:55.184Z,18.50
2019-04-26T01:54:27.760Z,18.50
2019-04-26T01:56:59.386Z,18.60
2019-04-26T01:59:29.538Z,18.90
2019-04-26T02:02:02.787Z,18.90
2019-04-26T02:04:33.001Z,18.90
2019-04-26T02:07:01.570Z,18.60
2019-04-26T02:09:30.568Z,18.50
2019-04-26T02:11:59.400Z,18.50
2019-04-26T02:14:28.957Z,18.70
2019-04-26T02:16:57.662Z,18.80
2019-04-26T02:19:27.419Z,18.80
2019-04-26T02:22:10.146Z,18.70
2019-04-26T02:24:40.279Z,18.60
2019-04-26T02:27:10.525Z,18.60
2019-04-26T02:29:38.951Z,18.80
2019-04-26T02:32:08.981Z,18.70
2019-04-26T02:34:38.355Z,18.40
2019-04-26T02:37:10.258Z,18.40
2019-04-26T02:39:42.059Z,18.70
2019-04-26T02:42:16.194Z,18.90
2019-04-26T02:44:49.342Z,18.70
2019-04-26T02:47:35.005Z,18.60
2019-04-26T02:50:28.335Z,18.70
2019-04-26T02:53:00.149Z,18.60
2019-04-26T02:55:49.512Z,18.60
2019-04-26T02:58:20.996Z,18.60
2019-04-26T03:00:50.596Z,18.70
2019-04-26T03:03:22.154Z,18.60
2019-04-26T03:05:52.418Z,18.60
2019-04-26T03:08:22.703Z,18.80
2019-04-26T03:10:54.286Z,18.80
2019-04-26T03:13:27.447Z,18.60
2019-04-26T03:16:15.783Z,18.40
2019-04-26T03:19:06.982Z,18.40
2019-04-26T03:21:46.915Z,18.40
2019-04-26T03:24:24.267Z,18.30
2019-04-26T03:27:11.957Z,18.30
2019-04-26T03:29:49.594Z,18.30
2019-04-26T03:32:51.636Z,18.40
2019-04-26T03:35:37.047Z,18.60
2019-04-26T03:38:26.137Z,18.60
2019-04-26T03:41:10.739Z,18.60
2019-04-26T03:43:45.132Z,18.70
2019-04-26T03:46:31.493Z,18.60
2019-04-26T03:49:36.116Z,18.60
2019-04-26T03:52:24.199Z,18.70
2019-04-26T03:54:58.339Z,18.80
2019-04-26T03:57:50.829Z,18.60
2019-04-26T04:00:24.986Z,18.50
2019-04-26T04:03:04.047Z,18.60
2019-04-26T04:05:44.265Z,18.80
2019-04-26T04:08:15.942Z,18.80
2019-04-26T04:11:05.550Z,18.50
2019-04-26T04:13:40.712Z,18.40
2019-04-26T04:16:31.459Z,18.40
2019-04-26T04:19:11.893Z,18.20
2019-04-26T04:21:50.981Z,18.30
2019-04-26T04:24:22.770Z,18.40
2019-04-26T04:27:00.230Z,18.40
2019-04-26T04:29:44.792Z,18.40
2019-04-26T04:32:11.042Z,18.30
2019-04-26T04:34:49.609Z,18.30
2019-04-26T04:37:20.468Z,18.20
2019-04-26T04:40:04.646Z,18.30
2019-04-26T04:43:04.504Z,18.30
2019-04-26T04:45:53.145Z,18.20
2019-04-26T04:48:51.142Z,18.10
2019-04-26T04:51:32.904Z,18.00
2019-04-26T04:54:16.285Z,17.90
2019-04-26T04:56:47.891Z,17.90
2019-04-26T04:59:24.985Z,17.90
2019-04-26T05:02:06.909Z,17.80
2019-04-26T05:04:46.816Z,17.50
2019-04-26T05:07:33.258Z,17.60
2019-04-26T05:10:10.246Z,17.60
2019-04-26T05:12:47.899Z,17.60
2019-04-26T05:15:29.314Z,17.60
2019-04-26T05:18:34.921Z,17.50
2019-04-26T05:21:28.697Z,17.60
2019-04-26T05:24:15.161Z,17.80
2019-04-26T05:26:51.486Z,17.80
2019-04-26T05:29:33.761Z,17.80
2019-04-26T05:32:20.087Z,17.70
2019-04-26T05:35:11.270Z,17.80
2019-04-26T05:38:00.443Z,17.90
2019-04-26T05:40:48.618Z,18.00
2019-04-26T05:43:34.541Z,17.80
2019-04-26T05:46:19.196Z,17.80
2019-04-26T05:49:14.149Z,17.80
2019-04-26T05:52:02.167Z,17.70
2019-04-26T05:54:53.994Z,17.60
2019-04-26T05:57:41.600Z,17.60
2019-04-26T06:00:39.554Z,17.60
2019-04-26T06:03:18.288Z,17.50
2019-04-26T06:06:05.277Z,17.50
2019-04-26T06:08:51.178Z,17.50
2019-04-26T06:11:24.818Z,17.40
2019-04-26T06:14:00.425Z,17.40
2019-04-26T06:16:57.430Z,17.60
2019-04-26T06:19:42.277Z,17.70
2019-04-26T06:22:16.742Z,17.80
2019-04-26T06:25:11.007Z,17.80
2019-04-26T06:27:56.233Z,17.90
2019-04-26T06:30:27.859Z,17.90
2019-04-26T06:33:15.260Z,18.00
2019-04-26T06:35:47.430Z,18.00
2019-04-26T06:38:43.465Z,18.00
2019-04-26T06:41:27.436Z,18.00
2019-04-26T06:44:00.581Z,18.10
2019-04-26T06:47:04.945Z,18.10
2019-04-26T06:49:56.872Z,18.10
2019-04-26T06:52:28.926Z,18.10
2019-04-26T06:55:04.273Z,17.80
2019-04-26T06:58:13.098Z,17.80
2019-04-26T07:01:01.118Z,17.80
2019-04-26T07:03:53.566Z,17.80
2019-04-26T07:06:35.285Z,17.70
2019-04-26T07:09:11.708Z,17.80
2019-04-26T07:12:22.262Z,17.60
2019-04-26T07:15:01.062Z,17.50
2019-04-26T07:17:42.144Z,17.60
2019-04-26T07:20:14.207Z,17.60
2019-04-26T07:23:21.292Z,17.50
2019-04-26T07:26:16.731Z,17.60
2019-04-26T07:29:03.555Z,17.70
2019-04-26T07:31:42.373Z,17.90
2019-04-26T07:34:42.564Z,18.00
2019-04-26T07:37:26.013Z,17.80
2019-04-26T07:40:07.713Z,18.00
2019-04-26T07:43:09.023Z,17.80
2019-04-26T07:46:09.127Z,17.60
2019-04-26T07:48:56.787Z,17.90
2019-04-26T07:51:49.301Z,18.20
2019-04-26T07:54:44.068Z,18.20
2019-04-26T07:57:41.403Z,17.80
2019-04-26T08:00:19.326Z,17.80
2019-04-26T08:02:54.973Z,17.90
2019-04-26T08:05:37.039Z,18.20
2019-04-26T08:08:08.585Z,18.20
2019-04-26T08:10:39.845Z,18.10
2019-04-26T08:13:11.451Z,18.10
2019-04-26T08:15:53.058Z,18.10
2019-04-26T08:18:28.640Z,18.10
2019-04-26T08:21:02.430Z,17.90
2019-04-26T08:23:41.644Z,18.00
2019-04-26T08:26:13.466Z,18.20
2019-04-26T08:28:43.734Z,18.20
2019-04-26T08:31:19.464Z,18.40
2019-04-26T08:33:49.749Z,18.50
2019-04-26T08:36:23.316Z,18.70
2019-04-26T08:38:54.068Z,18.70
2019-04-26T08:41:24.115Z,18.50
2019-04-26T08:43:59.730Z,18.60
2019-04-26T08:46:51.041Z,18.50
2019-04-26T08:49:39.177Z,18.50
2019-04-26T08:52:14.222Z,18.50
2019-04-26T08:54:41.586Z,18.60
2019-04-26T08:57:12.945Z,18.50
2019-04-26T08:59:44.448Z,18.60
2019-04-26T09:02:17.617Z,18.70
2019-04-26T09:04:57.949Z,18.60
2019-04-26T09:07:31.177Z,18.50
2019-04-26T09:10:10.763Z,18.60
2019-04-26T09:12:35.454Z,18.50
2019-04-26T09:15:10.675Z,18.50
2019-04-26T09:17:39.130Z,18.60
2019-04-26T09:20:09.394Z,18.70
2019-04-26T09:22:48.724Z,18.80
2019-04-26T09:25:30.348Z,18.70
2019-04-26T09:28:15.639Z,18.70
2019-04-26T09:30:54.779Z,18.60
2019-04-26T09:33:24.866Z,18.70
2019-04-26T09:35:53.330Z,18.70
2019-04-26T09:38:22.010Z,18.70
2019-04-26T09:40:52.576Z,18.70
2019-04-26T09:43:22.324Z,18.70
2019-04-26T09:45:55.078Z,18.80
2019-04-26T09:48:31.097Z,18.70
2019-04-26T09:51:01.129Z,18.70
2019-04-26T09:53:29.563Z,18.70
2019-04-26T09:55:58.027Z,18.60
2019-04-26T09:58:26.770Z,18.60
2019-04-26T10:00:56.717Z,18.60
2019-04-26T10:03:25.138Z,18.80
2019-04-26T10:05:55.819Z,18.80
2019-04-26T10:08:24.009Z,18.90
2019-04-26T10:10:52.450Z,18.90
2019-04-26T10:13:34.317Z,18.90
2019-04-26T10:16:22.280Z,18.90
2019-04-26T10:18:54.466Z,18.90
2019-04-26T10:21:22.486Z,18.90
2019-04-26T10:23:50.933Z,18.90
2019-04-26T10:26:23.310Z,18.90
2019-04-26T10:28:50.677Z,18.90
2019-04-26T10:31:20.066Z,19.00
2019-04-26T10:33:48.499Z,19.00
2019-04-26T10:36:16.943Z,18.90
2019-04-26T10:38:45.373Z,18.90
2019-04-26T10:41:13.890Z,18.90
2019-04-26T10:43:42.313Z,18.90
2019-04-26T10:46:10.761Z,18.90
2019-04-26T10:48:41.313Z,18.90
2019-04-26T10:51:09.733Z,18.80
2019-04-26T10:53:42.587Z,18.80
2019-04-26T10:56:28.995Z,18.80
2019-04-26T10:59:06.137Z,18.90
2019-04-26T11:01:36.205Z,18.70
2019-04-26T11:04:04.638Z,18.80
2019-04-26T11:06:33.111Z,18.80
2019-04-26T11:09:01.537Z,18.70
2019-04-26T11:11:29.985Z,18.50
2019-04-26T11:13:58.461Z,18.60
2019-04-26T11:16:27.413Z,18.60
2019-04-26T11:18:57.148Z,18.70
2019-04-26T11:21:26.061Z,18.80
2019-04-26T11:23:54.530Z,18.80
2019-04-26T11:26:22.989Z,18.80
2019-04-26T11:28:55.529Z,18.90
2019-04-26T11:31:23.345Z,18.90
2019-04-26T11:33:52.010Z,18.80
2019-04-26T11:36:22.196Z,18.60
2019-04-26T11:38:50.710Z,18.60
2019-04-26T11:41:19.134Z,18.60
2019-04-26T11:43:49.089Z,18.60
2019-04-26T11:46:21.359Z,18.70
2019-04-26T11:48:58.577Z,18.70
2019-04-26T11:51:18.292Z,18.80
2019-04-26T11:53:46.782Z,18.70
2019-04-26T11:56:15.278Z,18.80
2019-04-26T11:58:43.993Z,18.70
2019-04-26T12:01:14.164Z,18.80
2019-04-26T12:03:44.254Z,18.70
2019-04-26T12:06:30.605Z,18.80
2019-04-26T12:09:00.951Z,18.80
2019-04-26T12:11:34.160Z,18.80
2019-04-26T12:14:00.516Z,18.80
2019-04-26T12:16:29.699Z,18.90
2019-04-26T12:18:58.173Z,18.90
2019-04-26T12:21:30.328Z,18.90
2019-04-26T12:23:56.814Z,18.90
2019-04-26T12:26:25.241Z,18.90
2019-04-26T12:28:53.702Z,19.00
2019-04-26T12:31:22.404Z,18.90
2019-04-26T12:33:50.875Z,18.90
2019-04-26T12:36:19.425Z,18.90
2019-04-26T12:38:47.895Z,18.90
2019-04-26T12:41:17.263Z,19.00
2019-04-26T12:43:46.892Z,18.90
2019-04-26T12:46:16.984Z,18.90
2019-04-26T12:48:45.982Z,18.90
2019-04-26T12:51:15.822Z,18.80
2019-04-26T12:53:44.275Z,18.60
2019-04-26T12:56:12.702Z,18.70
2019-04-26T12:58:41.398Z,18.80
2019-04-26T13:01:12.117Z,18.70
2019-04-26T13:03:43.587Z,18.80
2019-04-26T13:06:12.086Z,18.90
2019-04-26T13:08:40.889Z,19.00
2019-04-26T13:11:14.982Z,18.90
2019-04-26T13:13:43.045Z,18.90
2019-04-26T13:16:21.694Z,18.90
2019-04-26T13:18:49.425Z,18.90
2019-04-26T13:21:17.857Z,18.90
2019-04-26T13:23:48.164Z,18.80
2019-04-26T13:26:16.886Z,18.90
2019-04-26T13:28:45.313Z,18.90
2019-04-26T13:31:13.759Z,18.90
2019-04-26T13:33:42.274Z,18.90
2019-04-26T13:36:10.778Z,18.90
2019-04-26T13:38:43.288Z,19.00
2019-04-26T13:41:09.694Z,18.90
2019-04-26T13:43:38.145Z,18.80
2019-04-26T13:46:10.919Z,18.60
2019-04-26T13:48:43.688Z,18.40
2019-04-26T13:51:12.793Z,18.70
2019-04-26T13:53:41.266Z,18.70
2019-04-26T13:56:09.774Z,18.80
2019-04-26T13:58:38.197Z,18.90
2019-04-26T14:01:06.910Z,18.70
2019-04-26T14:03:35.337Z,18.80
2019-04-26T14:06:03.776Z,18.90
2019-04-26T14:08:32.222Z,18.90
2019-04-26T14:11:00.931Z,18.60
2019-04-26T14:13:29.352Z,18.70
2019-04-26T14:15:57.869Z,18.80
2019-04-26T14:18:26.317Z,18.80
2019-04-26T14:20:58.850Z,18.80
2019-04-26T14:23:38.677Z,18.80
2019-04-26T14:26:14.925Z,18.50
2019-04-26T14:28:43.350Z,18.60
2019-04-26T14:31:16.624Z,18.70
2019-04-26T14:33:42.780Z,18.80
2019-04-26T14:36:17.667Z,18.60
2019-04-26T14:38:41.466Z,18.50
2019-04-26T14:41:13.136Z,18.60
2019-04-26T14:43:41.559Z,18.60
2019-04-26T14:46:10.403Z,18.70
2019-04-26T14:48:44.579Z,18.80
2019-04-26T14:51:12.415Z,18.80
2019-04-26T14:53:40.899Z,18.80
2019-04-26T14:56:09.357Z,18.80
2019-04-26T14:58:37.877Z,18.80
2019-04-26T15:01:07.941Z,18.80
2019-04-26T15:03:47.091Z,18.70
2019-04-26T15:06:21.514Z,18.80
2019-04-26T15:08:50.939Z,18.90
2019-04-26T15:11:19.402Z,18.80
2019-04-26T15:13:47.820Z,18.80
2019-04-26T15:16:16.275Z,18.80
2019-04-26T15:18:44.721Z,18.80
2019-04-26T15:21:13.149Z,18.80
2019-04-26T15:23:41.601Z,18.80
2019-04-26T15:26:10.027Z,18.80
2019-04-26T15:28:38.483Z,18.90
2019-04-26T15:31:07.186Z,18.90
2019-04-26T15:33:36.111Z,18.90
2019-04-26T15:36:06.384Z,18.90
2019-04-26T15:38:41.402Z,18.80
2019-04-26T15:41:17.031Z,18.90
2019-04-26T15:43:59.398Z,18.80
2019-04-26T15:46:48.556Z,18.70
2019-04-26T15:49:34.725Z,18.80
2019-04-26T15:52:01.794Z,18.70
2019-04-26T15:54:30.217Z,18.80
2019-04-26T15:56:58.673Z,18.70
2019-04-26T15:59:27.119Z,18.60
2019-04-26T16:01:56.353Z,18.70
2019-04-26T16:04:24.980Z,18.70
2019-04-26T16:06:53.710Z,18.80
2019-04-26T16:09:23.008Z,18.90
2019-04-26T16:11:53.096Z,18.70
2019-04-26T16:14:24.940Z,18.80
2019-04-26T16:16:52.534Z,18.90
2019-04-26T16:19:21.257Z,18.60
2019-04-26T16:21:52.782Z,18.50
2019-04-26T16:24:19.957Z,18.40
2019-04-26T16:26:55.674Z,18.60
2019-04-26T16:29:24.283Z,18.50
2019-04-26T16:32:12.380Z,18.40
2019-04-26T16:34:47.679Z,18.50
2019-04-26T16:37:14.989Z,18.50
2019-04-26T16:39:48.281Z,18.60
2019-04-26T16:42:13.998Z,18.60
2019-04-26T16:44:44.969Z,18.50
2019-04-26T16:47:13.213Z,18.40
2019-04-26T16:49:44.181Z,18.30
2019-04-26T16:52:13.990Z,18.30
2019-04-26T16:54:42.594Z,17.80
2019-04-26T16:57:12.298Z,17.50
2019-04-26T16:59:49.009Z,17.60
2019-04-26T17:02:13.359Z,17.60
2019-04-26T17:04:43.590Z,17.70
2019-04-26T17:07:13.291Z,18.10
2019-04-26T17:09:55.799Z,18.50
2019-04-26T17:12:14.972Z,18.40
2019-04-26T17:14:47.841Z,18.30
2019-04-26T17:17:14.245Z,18.00
2019-04-26T17:19:43.226Z,17.60
2019-04-26T17:22:19.480Z,17.50
2019-04-26T17:24:53.406Z,17.80
2019-04-26T17:27:23.777Z,17.60
2019-04-26T17:29:52.800Z,17.60
2019-04-26T17:32:23.117Z,17.70
2019-04-26T17:34:52.262Z,18.00
2019-04-26T17:37:26.190Z,18.10
2019-04-26T17:39:55.264Z,18.00
2019-04-26T17:42:25.327Z,17.80
2019-04-26T17:44:52.574Z,17.80
2019-04-26T17:47:21.055Z,17.90
2019-04-26T17:49:50.179Z,17.10
2019-04-26T17:52:20.426Z,16.80
2019-04-26T17:54:50.192Z,16.80
2019-04-26T17:57:32.161Z,16.70
2019-04-26T17:59:51.577Z,16.80
2019-04-26T18:02:38.682Z,16.60
2019-04-26T18:04:58.934Z,16.90
2019-04-26T18:07:39.697Z,17.10
2019-04-26T18:09:52.578Z,17.20
2019-04-26T18:12:21.110Z,17.40
2019-04-26T18:14:49.806Z,17.30
2019-04-26T18:17:23.200Z,17.10
2019-04-26T18:19:54.860Z,17.10
2019-04-26T18:22:28.422Z,17.20
2019-04-26T18:24:58.287Z,17.00
2019-04-26T18:27:29.892Z,16.70
2019-04-26T18:29:59.823Z,16.80
2019-04-26T18:32:27.277Z,16.90
2019-04-26T18:34:55.729Z,16.90
2019-04-26T18:37:24.190Z,16.70
2019-04-26T18:39:53.465Z,16.90
2019-04-26T18:42:22.063Z,16.70
2019-04-26T18:44:50.771Z,16.90
2019-04-26T18:47:25.732Z,16.80
2019-04-26T18:49:52.070Z,16.60
2019-04-26T18:52:23.312Z,16.80
2019-04-26T18:54:53.111Z,16.90
2019-04-26T18:57:21.562Z,17.00
2019-04-26T18:59:52.825Z,16.60
2019-04-26T19:02:23.558Z,16.40
2019-04-26T19:04:52.967Z,16.60
2019-04-26T19:07:31.870Z,16.60
2019-04-26T19:10:02.826Z,16.70
2019-04-26T19:12:26.640Z,16.70
2019-04-26T19:15:11.482Z,16.60
2019-04-26T19:17:51.587Z,16.60
2019-04-26T19:20:24.429Z,16.80
2019-04-26T19:22:54.506Z,16.90
2019-04-26T19:25:23.884Z,16.90
2019-04-26T19:27:54.059Z,17.00
2019-04-26T19:30:23.053Z,17.00
2019-04-26T19:32:53.859Z,16.70
2019-04-26T19:35:22.108Z,16.70
2019-04-26T19:37:51.754Z,16.40
2019-04-26T19:40:20.398Z,16.50
2019-04-26T19:42:53.715Z,16.70
2019-04-26T19:45:32.668Z,16.60
2019-04-26T19:48:02.817Z,16.50
2019-04-26T19:50:42.083Z,16.50
2019-04-26T19:53:20.960Z,16.60
2019-04-26T19:56:05.080Z,16.40
2019-04-26T19:58:35.405Z,16.40
2019-04-26T20:01:04.423Z,16.20
2019-04-26T20:03:33.841Z,16.20
2019-04-26T20:06:02.462Z,16.50
2019-04-26T20:08:35.359Z,16.50
2019-04-26T20:11:01.409Z,16.10
2019-04-26T20:13:31.596Z,16.10
2019-04-26T20:16:02.706Z,16.20
2019-04-26T20:18:32.770Z,16.10
2019-04-26T20:21:02.379Z,16.40
2019-04-26T20:23:33.602Z,16.30
2019-04-26T20:26:07.075Z,16.30
2019-04-26T20:28:37.355Z,16.30
2019-04-26T20:31:08.895Z,16.20
2019-04-26T20:33:37.408Z,16.20
2019-04-26T20:36:05.875Z,16.00
2019-04-26T20:38:42.843Z,16.30
2019-04-26T20:41:04.677Z,16.00
2019-04-26T20:43:36.833Z,16.00
2019-04-26T20:46:14.054Z,15.90
2019-04-26T20:48:33.680Z,15.90
2019-04-26T20:51:02.372Z,16.10
2019-04-26T20:53:40.015Z,16.10
2019-04-26T20:56:03.833Z,16.00
2019-04-26T20:58:31.694Z,15.90
2019-04-26T21:01:01.513Z,15.80
2019-04-26T21:03:32.071Z,15.80
2019-04-26T21:06:01.407Z,16.00
2019-04-26T21:08:31.708Z,16.10
2019-04-26T21:11:01.128Z,16.10
2019-04-26T21:13:31.128Z,16.00
2019-04-26T21:16:03.672Z,16.00
2019-04-26T21:18:33.817Z,16.20
2019-04-26T21:21:01.510Z,16.00
2019-04-26T21:23:33.807Z,16.00
2019-04-26T21:26:02.984Z,15.90
2019-04-26T21:28:42.756Z,15.70
2019-04-26T21:31:10.913Z,15.70
2019-04-26T21:33:50.093Z,15.60
2019-04-26T21:36:34.661Z,15.70
2019-04-26T21:39:07.367Z,15.70
2019-04-26T21:41:35.609Z,15.80
2019-04-26T21:44:07.661Z,15.90
2019-04-26T21:46:34.301Z,15.90
2019-04-26T21:49:03.618Z,15.90
2019-04-26T21:51:33.847Z,15.90
2019-04-26T21:54:03.779Z,15.90
2019-04-26T21:56:33.738Z,16.00
2019-04-26T21:59:03.673Z,16.20
2019-04-26T22:01:33.104Z,16.30
2019-04-26T22:04:03.015Z,16.20
2019-04-26T22:06:33.326Z,16.30
2019-04-26T22:09:06.526Z,16.30
2019-04-26T22:11:35.013Z,16.20
2019-04-26T22:14:08.177Z,16.10
2019-04-26T22:16:57.642Z,16.00
2019-04-26T22:19:43.196Z,16.00
2019-04-26T22:22:15.151Z,16.00
2019-04-26T22:24:45.214Z,15.90
2019-04-26T22:27:17.382Z,15.80
2019-04-26T22:29:47.664Z,15.70
2019-04-26T22:32:15.925Z,15.70
2019-04-26T22:34:46.102Z,15.70
2019-04-26T22:37:23.165Z,15.60
2019-04-26T22:39:44.765Z,15.70
2019-04-26T22:42:13.914Z,15.70
2019-04-26T22:44:44.086Z,15.60
2019-04-26T22:47:16.844Z,15.60
2019-04-26T22:49:45.478Z,15.60
2019-04-26T22:52:16.432Z,15.70
2019-04-26T22:54:46.531Z,15.80
2019-04-26T22:57:16.183Z,16.00
2019-04-26T22:59:49.992Z,15.80
2019-04-26T23:02:18.322Z,15.70
2019-04-26T23:04:45.653Z,15.70
2019-04-26T23:07:18.269Z,15.70
2019-04-26T23:09:52.271Z,15.70
2019-04-26T23:12:27.857Z,15.70
2019-04-26T23:15:13.288Z,15.60
2019-04-26T23:17:52.250Z,15.60
2019-04-26T23:20:23.391Z,15.60
2019-04-26T23:22:52.968Z,15.70
2019-04-26T23:25:21.726Z,15.60
2019-04-26T23:27:50.449Z,15.60
2019-04-26T23:30:20.617Z,15.60
2019-04-26T23:32:52.265Z,15.60
2019-04-26T23:35:19.217Z,15.60
2019-04-26T23:37:47.693Z,15.60
2019-04-26T23:40:16.131Z,15.50
2019-04-26T23:42:47.519Z,15.60
2019-04-26T23:45:15.002Z,15.60
2019-04-26T23:47:43.816Z,15.60
2019-04-26T23:50:14.042Z,15.50
2019-04-26T23:52:43.668Z,15.50
2019-04-26T23:55:13.499Z,15.40
2019-04-26T23:57:43.478Z,15.40
